sensor_id;sensor_type;location;lat;lon;timestamp;P1;durP1;ratioP1;P2;durP2;ratioP2
24137;SDS011;17947;50.672;6.076;2022-12-18T00:01:49;2.67;;;2.08;;
24137;SDS011;17947;50.672;6.076;2022-12-18T00:04:18;2.70;;;2.10;;
24137;SDS011;17947;50.672;6.076;2022-12-18T00:06:45;2.30;;;2.05;;
24137;SDS011;17947;50.672;6.076;2022-12-18T00:09:11;2.50;;;2.03;;
24137;SDS011;17947;50.672;6.076;2022-12-18T00:11:37;2.40;;;1.90;;
24137;SDS011;17947;50.672;6.076;2022-12-18T00:14:03;2.35;;;2.13;;
24137;SDS011;17947;50.672;6.076;2022-12-18T00:16:30;2.90;;;1.80;;
24137;SDS011;17947;50.672;6.076;2022-12-18T00:18:58;2.55;;;2.05;;
24137;SDS011;17947;50.672;6.076;2022-12-18T00:21:25;2.20;;;1.83;;
24137;SDS011;17947;50.672;6.076;2022-12-18T00:23:52;3.03;;;1.98;;
24137;SDS011;17947;50.672;6.076;2022-12-18T00:26:25;2.88;;;1.67;;
24137;SDS011;17947;50.672;6.076;2022-12-18T00:28:52;2.53;;;1.88;;
24137;SDS011;17947;50.672;6.076;2022-12-18T00:31:20;1.83;;;1.65;;
24137;SDS011;17947;50.672;6.076;2022-12-18T00:33:47;1.63;;;1.50;;
24137;SDS011;17947;50.672;6.076;2022-12-18T00:38:39;2.38;;;1.70;;
24137;SDS011;17947;50.672;6.076;2022-12-18T00:41:06;2.25;;;1.77;;
24137;SDS011;17947;50.672;6.076;2022-12-18T00:43:32;2.00;;;1.55;;
24137;SDS011;17947;50.672;6.076;2022-12-18T00:45:58;1.98;;;1.30;;
24137;SDS011;17947;50.672;6.076;2022-12-18T00:48:24;1.50;;;1.40;;
24137;SDS011;17947;50.672;6.076;2022-12-18T00:50:50;2.15;;;1.52;;
24137;SDS011;17947;50.672;6.076;2022-12-18T00:53:17;1.80;;;1.40;;
24137;SDS011;17947;50.672;6.076;2022-12-18T00:55:43;1.90;;;1.50;;
24137;SDS011;17947;50.672;6.076;2022-12-18T00:58:09;1.40;;;1.30;;
24137;SDS011;17947;50.672;6.076;2022-12-18T01:00:35;2.45;;;1.50;;
24137;SDS011;17947;50.672;6.076;2022-12-18T01:03:01;1.40;;;1.30;;
24137;SDS011;17947;50.672;6.076;2022-12-18T01:05:27;1.33;;;1.23;;
24137;SDS011;17947;50.672;6.076;2022-12-18T01:07:54;1.75;;;1.50;;
24137;SDS011;17947;50.672;6.076;2022-12-18T01:10:20;1.70;;;1.35;;
24137;SDS011;17947;50.672;6.076;2022-12-18T01:12:46;1.38;;;1.15;;
24137;SDS011;17947;50.672;6.076;2022-12-18T01:15:14;1.40;;;1.10;;
24137;SDS011;17947;50.672;6.076;2022-12-18T01:17:40;1.65;;;1.35;;
24137;SDS011;17947;50.672;6.076;2022-12-18T01:20:06;1.73;;;1.10;;
24137;SDS011;17947;50.672;6.076;2022-12-18T01:22:33;1.30;;;1.20;;
24137;SDS011;17947;50.672;6.076;2022-12-18T01:24:59;1.40;;;1.13;;
24137;SDS011;17947;50.672;6.076;2022-12-18T01:27:25;1.42;;;1.08;;
24137;SDS011;17947;50.672;6.076;2022-12-18T01:29:51;1.42;;;1.33;;
24137;SDS011;17947;50.672;6.076;2022-12-18T01:32:17;1.50;;;1.27;;
24137;SDS011;17947;50.672;6.076;2022-12-18T01:34:43;1.30;;;1.20;;
24137;SDS011;17947;50.672;6.076;2022-12-18T01:37:09;1.15;;;1.05;;
24137;SDS011;17947;50.672;6.076;2022-12-18T01:39:35;1.38;;;1.13;;
24137;SDS011;17947;50.672;6.076;2022-12-18T01:42:09;1.42;;;1.20;;
24137;SDS011;17947;50.672;6.076;2022-12-18T01:48:02;1.17;;;0.90;;
24137;SDS011;17947;50.672;6.076;2022-12-18T01:50:07;1.13;;;1.02;;
24137;SDS011;17947;50.672;6.076;2022-12-18T01:52:33;1.17;;;1.08;;
24137;SDS011;17947;50.672;6.076;2022-12-18T01:55:00;0.82;;;0.80;;
24137;SDS011;17947;50.672;6.076;2022-12-18T01:57:27;0.98;;;0.98;;
24137;SDS011;17947;50.672;6.076;2022-12-18T01:59:54;1.27;;;1.20;;
24137;SDS011;17947;50.672;6.076;2022-12-18T02:02:22;1.17;;;1.08;;
24137;SDS011;17947;50.672;6.076;2022-12-18T02:04:48;1.27;;;1.17;;
24137;SDS011;17947;50.672;6.076;2022-12-18T02:09:43;1.05;;;0.95;;
24137;SDS011;17947;50.672;6.076;2022-12-18T02:12:21;1.25;;;0.93;;
24137;SDS011;17947;50.672;6.076;2022-12-18T02:14:50;1.13;;;1.00;;
24137;SDS011;17947;50.672;6.076;2022-12-18T02:17:20;1.00;;;0.90;;
24137;SDS011;17947;50.672;6.076;2022-12-18T02:27:14;1.10;;;1.00;;
24137;SDS011;17947;50.672;6.076;2022-12-18T02:29:44;1.10;;;1.00;;
24137;SDS011;17947;50.672;6.076;2022-12-18T02:32:14;1.08;;;0.98;;
24137;SDS011;17947;50.672;6.076;2022-12-18T02:34:41;0.73;;;0.73;;
24137;SDS011;17947;50.672;6.076;2022-12-18T02:37:10;0.80;;;0.80;;
24137;SDS011;17947;50.672;6.076;2022-12-18T02:39:39;1.55;;;0.90;;
24137;SDS011;17947;50.672;6.076;2022-12-18T02:42:06;0.80;;;0.80;;
24137;SDS011;17947;50.672;6.076;2022-12-18T02:44:42;0.80;;;0.80;;
24137;SDS011;17947;50.672;6.076;2022-12-18T02:47:10;0.75;;;0.75;;
24137;SDS011;17947;50.672;6.076;2022-12-18T02:54:49;0.70;;;0.70;;
24137;SDS011;17947;50.672;6.076;2022-12-18T03:00:11;0.80;;;0.80;;
24137;SDS011;17947;50.672;6.076;2022-12-18T03:05:27;0.73;;;0.73;;
24137;SDS011;17947;50.672;6.076;2022-12-18T03:10:26;0.88;;;0.80;;
24137;SDS011;17947;50.672;6.076;2022-12-18T03:12:55;0.77;;;0.77;;
24137;SDS011;17947;50.672;6.076;2022-12-18T03:15:30;1.00;;;0.90;;
24137;SDS011;17947;50.672;6.076;2022-12-18T03:18:04;0.80;;;0.80;;
24137;SDS011;17947;50.672;6.076;2022-12-18T03:20:34;0.73;;;0.70;;
24137;SDS011;17947;50.672;6.076;2022-12-18T03:23:11;1.45;;;0.82;;
24137;SDS011;17947;50.672;6.076;2022-12-18T03:25:39;0.60;;;0.60;;
24137;SDS011;17947;50.672;6.076;2022-12-18T03:28:06;0.75;;;0.70;;
24137;SDS011;17947;50.672;6.076;2022-12-18T03:30:33;1.02;;;0.63;;
24137;SDS011;17947;50.672;6.076;2022-12-18T03:33:10;0.77;;;0.77;;
24137;SDS011;17947;50.672;6.076;2022-12-18T03:35:39;0.93;;;0.70;;
24137;SDS011;17947;50.672;6.076;2022-12-18T03:38:06;0.77;;;0.77;;
24137;SDS011;17947;50.672;6.076;2022-12-18T03:43:22;0.75;;;0.75;;
24137;SDS011;17947;50.672;6.076;2022-12-18T03:45:53;0.75;;;0.70;;
24137;SDS011;17947;50.672;6.076;2022-12-18T03:55:53;0.68;;;0.68;;
24137;SDS011;17947;50.672;6.076;2022-12-18T03:58:20;0.88;;;0.80;;
24137;SDS011;17947;50.672;6.076;2022-12-18T04:00:48;0.82;;;0.80;;
24137;SDS011;17947;50.672;6.076;2022-12-18T04:03:15;0.77;;;0.60;;
24137;SDS011;17947;50.672;6.076;2022-12-18T04:05:42;0.50;;;0.50;;
24137;SDS011;17947;50.672;6.076;2022-12-18T04:08:09;0.50;;;0.50;;
24137;SDS011;17947;50.672;6.076;2022-12-18T04:10:35;0.70;;;0.60;;
24137;SDS011;17947;50.672;6.076;2022-12-18T04:13:01;0.70;;;0.70;;
24137;SDS011;17947;50.672;6.076;2022-12-18T04:15:27;0.60;;;0.50;;
24137;SDS011;17947;50.672;6.076;2022-12-18T04:17:53;0.70;;;0.65;;
24137;SDS011;17947;50.672;6.076;2022-12-18T04:20:19;0.55;;;0.55;;
24137;SDS011;17947;50.672;6.076;2022-12-18T04:22:45;0.90;;;0.70;;
24137;SDS011;17947;50.672;6.076;2022-12-18T04:25:12;1.48;;;0.70;;
24137;SDS011;17947;50.672;6.076;2022-12-18T04:27:38;0.75;;;0.70;;
24137;SDS011;17947;50.672;6.076;2022-12-18T04:30:04;0.70;;;0.68;;
24137;SDS011;17947;50.672;6.076;2022-12-18T04:32:30;0.63;;;0.63;;
24137;SDS011;17947;50.672;6.076;2022-12-18T04:34:56;0.60;;;0.60;;
24137;SDS011;17947;50.672;6.076;2022-12-18T04:37:23;0.60;;;0.60;;
24137;SDS011;17947;50.672;6.076;2022-12-18T04:39:49;0.57;;;0.57;;
24137;SDS011;17947;50.672;6.076;2022-12-18T04:42:15;0.60;;;0.60;;
24137;SDS011;17947;50.672;6.076;2022-12-18T04:44:41;0.70;;;0.60;;
24137;SDS011;17947;50.672;6.076;2022-12-18T04:47:07;0.50;;;0.50;;
24137;SDS011;17947;50.672;6.076;2022-12-18T04:49:33;0.65;;;0.65;;
24137;SDS011;17947;50.672;6.076;2022-12-18T04:51:59;0.70;;;0.60;;
24137;SDS011;17947;50.672;6.076;2022-12-18T04:54:25;0.70;;;0.70;;
24137;SDS011;17947;50.672;6.076;2022-12-18T04:56:51;0.60;;;0.60;;
24137;SDS011;17947;50.672;6.076;2022-12-18T04:59:17;0.80;;;0.80;;
24137;SDS011;17947;50.672;6.076;2022-12-18T05:01:44;0.60;;;0.60;;
24137;SDS011;17947;50.672;6.076;2022-12-18T05:04:10;0.73;;;0.60;;
24137;SDS011;17947;50.672;6.076;2022-12-18T05:06:36;0.65;;;0.60;;
24137;SDS011;17947;50.672;6.076;2022-12-18T05:09:02;0.70;;;0.70;;
24137;SDS011;17947;50.672;6.076;2022-12-18T05:11:28;0.80;;;0.70;;
24137;SDS011;17947;50.672;6.076;2022-12-18T05:13:54;0.50;;;0.50;;
24137;SDS011;17947;50.672;6.076;2022-12-18T05:16:20;0.70;;;0.60;;
24137;SDS011;17947;50.672;6.076;2022-12-18T05:18:47;0.55;;;0.55;;
24137;SDS011;17947;50.672;6.076;2022-12-18T05:21:13;0.60;;;0.60;;
24137;SDS011;17947;50.672;6.076;2022-12-18T05:23:39;0.88;;;0.70;;
24137;SDS011;17947;50.672;6.076;2022-12-18T05:26:06;0.65;;;0.60;;
24137;SDS011;17947;50.672;6.076;2022-12-18T05:28:33;0.75;;;0.60;;
24137;SDS011;17947;50.672;6.076;2022-12-18T05:31:00;0.70;;;0.70;;
24137;SDS011;17947;50.672;6.076;2022-12-18T05:33:29;0.52;;;0.52;;
24137;SDS011;17947;50.672;6.076;2022-12-18T05:35:56;0.45;;;0.45;;
24137;SDS011;17947;50.672;6.076;2022-12-18T05:38:23;0.52;;;0.52;;
24137;SDS011;17947;50.672;6.076;2022-12-18T05:40:50;0.60;;;0.60;;
24137;SDS011;17947;50.672;6.076;2022-12-18T05:43:16;0.60;;;0.60;;
24137;SDS011;17947;50.672;6.076;2022-12-18T05:45:43;0.60;;;0.60;;
24137;SDS011;17947;50.672;6.076;2022-12-18T05:48:09;0.52;;;0.52;;
24137;SDS011;17947;50.672;6.076;2022-12-18T05:50:36;0.77;;;0.70;;
24137;SDS011;17947;50.672;6.076;2022-12-18T05:53:02;0.50;;;0.50;;
24137;SDS011;17947;50.672;6.076;2022-12-18T05:55:29;0.50;;;0.50;;
24137;SDS011;17947;50.672;6.076;2022-12-18T05:57:55;0.73;;;0.70;;
24137;SDS011;17947;50.672;6.076;2022-12-18T06:00:21;0.95;;;0.57;;
24137;SDS011;17947;50.672;6.076;2022-12-18T06:02:47;1.15;;;0.70;;
24137;SDS011;17947;50.672;6.076;2022-12-18T06:05:13;0.70;;;0.60;;
24137;SDS011;17947;50.672;6.076;2022-12-18T06:07:39;0.70;;;0.70;;
24137;SDS011;17947;50.672;6.076;2022-12-18T06:10:05;0.50;;;0.50;;
24137;SDS011;17947;50.672;6.076;2022-12-18T06:12:31;0.60;;;0.60;;
24137;SDS011;17947;50.672;6.076;2022-12-18T06:14:58;0.88;;;0.50;;
24137;SDS011;17947;50.672;6.076;2022-12-18T06:17:28;0.70;;;0.68;;
24137;SDS011;17947;50.672;6.076;2022-12-18T06:19:54;0.70;;;0.70;;
24137;SDS011;17947;50.672;6.076;2022-12-18T06:22:20;0.70;;;0.70;;
24137;SDS011;17947;50.672;6.076;2022-12-18T06:24:47;0.60;;;0.60;;
24137;SDS011;17947;50.672;6.076;2022-12-18T06:27:13;0.55;;;0.55;;
24137;SDS011;17947;50.672;6.076;2022-12-18T06:29:39;0.52;;;0.52;;
24137;SDS011;17947;50.672;6.076;2022-12-18T06:32:05;1.30;;;0.60;;
24137;SDS011;17947;50.672;6.076;2022-12-18T06:34:32;0.70;;;0.70;;
24137;SDS011;17947;50.672;6.076;2022-12-18T06:36:59;0.90;;;0.80;;
24137;SDS011;17947;50.672;6.076;2022-12-18T06:39:27;0.70;;;0.70;;
24137;SDS011;17947;50.672;6.076;2022-12-18T06:41:53;0.60;;;0.60;;
24137;SDS011;17947;50.672;6.076;2022-12-18T06:44:19;0.75;;;0.60;;
24137;SDS011;17947;50.672;6.076;2022-12-18T06:46:45;0.63;;;0.63;;
24137;SDS011;17947;50.672;6.076;2022-12-18T06:49:11;0.68;;;0.68;;
24137;SDS011;17947;50.672;6.076;2022-12-18T06:51:37;1.02;;;0.88;;
24137;SDS011;17947;50.672;6.076;2022-12-18T06:54:03;0.77;;;0.77;;
24137;SDS011;17947;50.672;6.076;2022-12-18T06:56:30;1.05;;;0.98;;
24137;SDS011;17947;50.672;6.076;2022-12-18T06:58:56;0.80;;;0.80;;
24137;SDS011;17947;50.672;6.076;2022-12-18T07:01:22;1.10;;;1.00;;
24137;SDS011;17947;50.672;6.076;2022-12-18T07:03:55;0.80;;;0.80;;
24137;SDS011;17947;50.672;6.076;2022-12-18T07:06:23;0.80;;;0.80;;
24137;SDS011;17947;50.672;6.076;2022-12-18T07:08:50;2.03;;;0.75;;
24137;SDS011;17947;50.672;6.076;2022-12-18T07:11:16;1.50;;;0.85;;
24137;SDS011;17947;50.672;6.076;2022-12-18T07:13:43;0.80;;;0.80;;
24137;SDS011;17947;50.672;6.076;2022-12-18T07:16:14;1.05;;;0.95;;
24137;SDS011;17947;50.672;6.076;2022-12-18T07:18:40;1.00;;;0.85;;
24137;SDS011;17947;50.672;6.076;2022-12-18T07:21:07;1.15;;;0.75;;
24137;SDS011;17947;50.672;6.076;2022-12-18T07:23:34;1.90;;;0.90;;
24137;SDS011;17947;50.672;6.076;2022-12-18T07:26:03;0.85;;;0.80;;
24137;SDS011;17947;50.672;6.076;2022-12-18T07:28:30;0.90;;;0.90;;
24137;SDS011;17947;50.672;6.076;2022-12-18T07:30:56;0.90;;;0.90;;
24137;SDS011;17947;50.672;6.076;2022-12-18T07:33:23;0.70;;;0.70;;
24137;SDS011;17947;50.672;6.076;2022-12-18T07:35:49;0.90;;;0.80;;
24137;SDS011;17947;50.672;6.076;2022-12-18T07:38:16;1.05;;;0.90;;
24137;SDS011;17947;50.672;6.076;2022-12-18T07:40:42;0.80;;;0.80;;
24137;SDS011;17947;50.672;6.076;2022-12-18T07:43:08;1.00;;;0.90;;
24137;SDS011;17947;50.672;6.076;2022-12-18T07:45:34;0.90;;;0.90;;
24137;SDS011;17947;50.672;6.076;2022-12-18T07:48:00;1.08;;;0.98;;
24137;SDS011;17947;50.672;6.076;2022-12-18T07:50:26;1.00;;;0.90;;
24137;SDS011;17947;50.672;6.076;2022-12-18T07:52:52;1.08;;;0.98;;
24137;SDS011;17947;50.672;6.076;2022-12-18T07:55:18;1.10;;;0.90;;
24137;SDS011;17947;50.672;6.076;2022-12-18T07:57:44;1.35;;;1.05;;
24137;SDS011;17947;50.672;6.076;2022-12-18T08:00:11;1.15;;;1.00;;
24137;SDS011;17947;50.672;6.076;2022-12-18T08:02:37;1.23;;;1.08;;
24137;SDS011;17947;50.672;6.076;2022-12-18T08:05:03;1.20;;;1.10;;
24137;SDS011;17947;50.672;6.076;2022-12-18T08:07:29;2.88;;;1.23;;
24137;SDS011;17947;50.672;6.076;2022-12-18T08:09:55;1.38;;;1.27;;
24137;SDS011;17947;50.672;6.076;2022-12-18T08:12:21;1.00;;;1.00;;
24137;SDS011;17947;50.672;6.076;2022-12-18T08:14:47;1.50;;;1.20;;
24137;SDS011;17947;50.672;6.076;2022-12-18T08:17:13;1.42;;;1.10;;
24137;SDS011;17947;50.672;6.076;2022-12-18T08:19:39;1.77;;;1.20;;
24137;SDS011;17947;50.672;6.076;2022-12-18T08:22:05;1.80;;;1.10;;
24137;SDS011;17947;50.672;6.076;2022-12-18T08:24:31;1.35;;;1.05;;
24137;SDS011;17947;50.672;6.076;2022-12-18T08:26:57;1.17;;;1.08;;
24137;SDS011;17947;50.672;6.076;2022-12-18T08:29:23;1.20;;;1.10;;
24137;SDS011;17947;50.672;6.076;2022-12-18T08:31:49;1.10;;;1.00;;
24137;SDS011;17947;50.672;6.076;2022-12-18T08:34:16;1.10;;;1.00;;
24137;SDS011;17947;50.672;6.076;2022-12-18T08:36:42;1.45;;;1.25;;
24137;SDS011;17947;50.672;6.076;2022-12-18T08:39:08;1.20;;;1.10;;
24137;SDS011;17947;50.672;6.076;2022-12-18T08:41:35;1.30;;;1.20;;
24137;SDS011;17947;50.672;6.076;2022-12-18T08:44:01;1.10;;;1.00;;
24137;SDS011;17947;50.672;6.076;2022-12-18T08:46:46;1.65;;;1.17;;
24137;SDS011;17947;50.672;6.076;2022-12-18T08:49:12;1.25;;;1.15;;
24137;SDS011;17947;50.672;6.076;2022-12-18T08:51:39;1.27;;;1.17;;
24137;SDS011;17947;50.672;6.076;2022-12-18T08:54:05;1.55;;;1.20;;
24137;SDS011;17947;50.672;6.076;2022-12-18T08:56:31;2.08;;;1.25;;
24137;SDS011;17947;50.672;6.076;2022-12-18T08:58:58;1.50;;;1.38;;
24137;SDS011;17947;50.672;6.076;2022-12-18T09:01:24;2.30;;;1.30;;
24137;SDS011;17947;50.672;6.076;2022-12-18T09:03:50;2.17;;;1.30;;
24137;SDS011;17947;50.672;6.076;2022-12-18T09:06:17;1.67;;;1.30;;
24137;SDS011;17947;50.672;6.076;2022-12-18T09:08:43;1.00;;;0.90;;
24137;SDS011;17947;50.672;6.076;2022-12-18T09:11:21;1.30;;;1.00;;
24137;SDS011;17947;50.672;6.076;2022-12-18T09:13:47;2.03;;;1.30;;
24137;SDS011;17947;50.672;6.076;2022-12-18T09:16:13;1.73;;;1.20;;
24137;SDS011;17947;50.672;6.076;2022-12-18T09:18:40;1.05;;;0.95;;
24137;SDS011;17947;50.672;6.076;2022-12-18T09:21:13;1.38;;;1.27;;
24137;SDS011;17947;50.672;6.076;2022-12-18T09:23:40;1.02;;;1.02;;
24137;SDS011;17947;50.672;6.076;2022-12-18T09:26:06;1.30;;;1.20;;
24137;SDS011;17947;50.672;6.076;2022-12-18T09:28:33;1.20;;;1.10;;
24137;SDS011;17947;50.672;6.076;2022-12-18T09:31:03;1.42;;;1.30;;
24137;SDS011;17947;50.672;6.076;2022-12-18T09:33:30;1.20;;;1.10;;
24137;SDS011;17947;50.672;6.076;2022-12-18T09:35:56;1.33;;;1.00;;
24137;SDS011;17947;50.672;6.076;2022-12-18T09:38:22;1.20;;;1.10;;
24137;SDS011;17947;50.672;6.076;2022-12-18T09:40:49;1.20;;;1.10;;
24137;SDS011;17947;50.672;6.076;2022-12-18T09:43:18;1.30;;;1.20;;
24137;SDS011;17947;50.672;6.076;2022-12-18T09:45:46;1.20;;;1.10;;
24137;SDS011;17947;50.672;6.076;2022-12-18T09:48:31;1.98;;;1.10;;
24137;SDS011;17947;50.672;6.076;2022-12-18T09:51:08;1.27;;;1.10;;
24137;SDS011;17947;50.672;6.076;2022-12-18T09:53:37;2.42;;;1.20;;
24137;SDS011;17947;50.672;6.076;2022-12-18T09:56:05;2.63;;;1.17;;
24137;SDS011;17947;50.672;6.076;2022-12-18T10:01:18;2.20;;;1.20;;
24137;SDS011;17947;50.672;6.076;2022-12-18T10:03:46;1.40;;;1.30;;
24137;SDS011;17947;50.672;6.076;2022-12-18T10:06:14;1.13;;;1.05;;
24137;SDS011;17947;50.672;6.076;2022-12-18T10:19:25;1.58;;;1.10;;
24137;SDS011;17947;50.672;6.076;2022-12-18T10:26:51;1.25;;;1.10;;
24137;SDS011;17947;50.672;6.076;2022-12-18T10:29:18;2.40;;;1.10;;
24137;SDS011;17947;50.672;6.076;2022-12-18T10:31:45;1.65;;;1.17;;
24137;SDS011;17947;50.672;6.076;2022-12-18T10:34:11;1.63;;;1.10;;
24137;SDS011;17947;50.672;6.076;2022-12-18T10:36:38;1.20;;;1.10;;
24137;SDS011;17947;50.672;6.076;2022-12-18T10:41:42;1.35;;;1.00;;
24137;SDS011;17947;50.672;6.076;2022-12-18T10:44:12;1.17;;;1.08;;
24137;SDS011;17947;50.672;6.076;2022-12-18T10:46:44;0.82;;;0.82;;
24137;SDS011;17947;50.672;6.076;2022-12-18T10:49:23;1.40;;;1.20;;
24137;SDS011;17947;50.672;6.076;2022-12-18T10:51:50;0.80;;;0.80;;
24137;SDS011;17947;50.672;6.076;2022-12-18T11:08:01;1.13;;;1.02;;
24137;SDS011;17947;50.672;6.076;2022-12-18T11:10:35;1.38;;;1.27;;
24137;SDS011;17947;50.672;6.076;2022-12-18T11:13:11;1.35;;;1.23;;
24137;SDS011;17947;50.672;6.076;2022-12-18T11:15:39;1.67;;;1.50;;
24137;SDS011;17947;50.672;6.076;2022-12-18T11:18:14;1.23;;;1.05;;
24137;SDS011;17947;50.672;6.076;2022-12-18T11:20:42;1.77;;;1.55;;
24137;SDS011;17947;50.672;6.076;2022-12-18T11:23:11;1.60;;;1.25;;
24137;SDS011;17947;50.672;6.076;2022-12-18T11:25:38;1.40;;;1.25;;
24137;SDS011;17947;50.672;6.076;2022-12-18T11:28:08;1.65;;;1.50;;
24137;SDS011;17947;50.672;6.076;2022-12-18T11:31:02;3.05;;;1.60;;
24137;SDS011;17947;50.672;6.076;2022-12-18T11:33:34;1.98;;;1.40;;
24137;SDS011;17947;50.672;6.076;2022-12-18T11:36:02;2.72;;;1.85;;
24137;SDS011;17947;50.672;6.076;2022-12-18T11:38:30;3.53;;;1.50;;
24137;SDS011;17947;50.672;6.076;2022-12-18T11:40:59;2.70;;;1.55;;
24137;SDS011;17947;50.672;6.076;2022-12-18T11:43:27;2.92;;;1.58;;
24137;SDS011;17947;50.672;6.076;2022-12-18T11:46:03;1.90;;;1.40;;
24137;SDS011;17947;50.672;6.076;2022-12-18T11:48:32;4.38;;;1.60;;
24137;SDS011;17947;50.672;6.076;2022-12-18T11:50:59;1.60;;;1.40;;
24137;SDS011;17947;50.672;6.076;2022-12-18T11:53:26;1.80;;;1.35;;
24137;SDS011;17947;50.672;6.076;2022-12-18T12:17:49;2.38;;;1.70;;
24137;SDS011;17947;50.672;6.076;2022-12-18T12:23:09;2.05;;;1.60;;
24137;SDS011;17947;50.672;6.076;2022-12-18T12:33:18;6.10;;;1.80;;
24137;SDS011;17947;50.672;6.076;2022-12-18T12:38:43;2.42;;;1.65;;
24137;SDS011;17947;50.672;6.076;2022-12-18T12:41:16;2.78;;;1.80;;
24137;SDS011;17947;50.672;6.076;2022-12-18T12:44:03;1.60;;;1.48;;
24137;SDS011;17947;50.672;6.076;2022-12-18T12:46:31;1.70;;;1.48;;
24137;SDS011;17947;50.672;6.076;2022-12-18T12:48:59;2.60;;;1.77;;
24137;SDS011;17947;50.672;6.076;2022-12-18T12:53:53;2.67;;;1.77;;
24137;SDS011;17947;50.672;6.076;2022-12-18T12:56:20;2.25;;;1.67;;
24137;SDS011;17947;50.672;6.076;2022-12-18T13:06:19;2.55;;;1.55;;
24137;SDS011;17947;50.672;6.076;2022-12-18T13:08:51;4.00;;;1.70;;
24137;SDS011;17947;50.672;6.076;2022-12-18T13:11:31;2.78;;;2.17;;
24137;SDS011;17947;50.672;6.076;2022-12-18T13:14:24;5.18;;;1.70;;
24137;SDS011;17947;50.672;6.076;2022-12-18T13:16:50;2.10;;;1.80;;
24137;SDS011;17947;50.672;6.076;2022-12-18T13:19:23;3.67;;;1.70;;
24137;SDS011;17947;50.672;6.076;2022-12-18T13:21:54;3.42;;;1.83;;
24137;SDS011;17947;50.672;6.076;2022-12-18T13:24:25;3.45;;;1.92;;
24137;SDS011;17947;50.672;6.076;2022-12-18T13:26:53;3.65;;;1.88;;
24137;SDS011;17947;50.672;6.076;2022-12-18T13:30:02;6.07;;;2.28;;
24137;SDS011;17947;50.672;6.076;2022-12-18T13:32:24;6.45;;;1.77;;
24137;SDS011;17947;50.672;6.076;2022-12-18T13:37:40;4.38;;;1.88;;
24137;SDS011;17947;50.672;6.076;2022-12-18T13:42:51;2.55;;;1.95;;
24137;SDS011;17947;50.672;6.076;2022-12-18T13:45:45;6.78;;;2.50;;
24137;SDS011;17947;50.672;6.076;2022-12-18T13:48:18;4.85;;;2.22;;
24137;SDS011;17947;50.672;6.076;2022-12-18T13:50:48;2.80;;;1.95;;
24137;SDS011;17947;50.672;6.076;2022-12-18T13:53:24;3.60;;;2.10;;
24137;SDS011;17947;50.672;6.076;2022-12-18T13:55:51;3.95;;;2.08;;
24137;SDS011;17947;50.672;6.076;2022-12-18T13:58:17;3.30;;;2.40;;
24137;SDS011;17947;50.672;6.076;2022-12-18T14:00:44;3.97;;;2.47;;
24137;SDS011;17947;50.672;6.076;2022-12-18T14:03:43;4.70;;;2.50;;
24137;SDS011;17947;50.672;6.076;2022-12-18T14:06:03;4.07;;;2.20;;
24137;SDS011;17947;50.672;6.076;2022-12-18T14:08:41;5.93;;;2.92;;
24137;SDS011;17947;50.672;6.076;2022-12-18T14:11:07;23.67;;;8.70;;
24137;SDS011;17947;50.672;6.076;2022-12-18T14:13:43;17.63;;;6.82;;
24137;SDS011;17947;50.672;6.076;2022-12-18T14:16:11;17.92;;;6.43;;
24137;SDS011;17947;50.672;6.076;2022-12-18T14:21:22;13.20;;;5.85;;
24137;SDS011;17947;50.672;6.076;2022-12-18T14:23:49;26.75;;;9.95;;
24137;SDS011;17947;50.672;6.076;2022-12-18T14:28:47;16.83;;;7.25;;
24137;SDS011;17947;50.672;6.076;2022-12-18T14:31:20;18.92;;;7.47;;
24137;SDS011;17947;50.672;6.076;2022-12-18T14:33:46;16.65;;;7.45;;
24137;SDS011;17947;50.672;6.076;2022-12-18T14:36:16;14.48;;;6.88;;
24137;SDS011;17947;50.672;6.076;2022-12-18T14:38:43;17.85;;;6.25;;
24137;SDS011;17947;50.672;6.076;2022-12-18T14:41:13;15.48;;;6.47;;
24137;SDS011;17947;50.672;6.076;2022-12-18T14:43:40;15.10;;;6.45;;
24137;SDS011;17947;50.672;6.076;2022-12-18T14:46:25;14.93;;;5.80;;
24137;SDS011;17947;50.672;6.076;2022-12-18T14:48:51;18.65;;;6.65;;
24137;SDS011;17947;50.672;6.076;2022-12-18T14:53:45;17.67;;;6.35;;
24137;SDS011;17947;50.672;6.076;2022-12-18T14:56:21;17.20;;;5.93;;
24137;SDS011;17947;50.672;6.076;2022-12-18T15:01:30;16.20;;;6.28;;
24137;SDS011;17947;50.672;6.076;2022-12-18T15:03:57;17.73;;;5.53;;
24137;SDS011;17947;50.672;6.076;2022-12-18T15:06:31;14.80;;;5.32;;
24137;SDS011;17947;50.672;6.076;2022-12-18T15:08:58;12.20;;;5.53;;
24137;SDS011;17947;50.672;6.076;2022-12-18T15:11:26;13.63;;;5.55;;
24137;SDS011;17947;50.672;6.076;2022-12-18T15:13:52;17.60;;;5.47;;
24137;SDS011;17947;50.672;6.076;2022-12-18T15:16:18;15.15;;;5.15;;
24137;SDS011;17947;50.672;6.076;2022-12-18T15:18:44;14.63;;;5.13;;
24137;SDS011;17947;50.672;6.076;2022-12-18T15:21:21;14.77;;;5.35;;
24137;SDS011;17947;50.672;6.076;2022-12-18T15:23:48;14.15;;;4.93;;
24137;SDS011;17947;50.672;6.076;2022-12-18T15:26:16;13.90;;;5.38;;
24137;SDS011;17947;50.672;6.076;2022-12-18T15:28:47;17.13;;;5.13;;
24137;SDS011;17947;50.672;6.076;2022-12-18T15:33:43;16.88;;;5.22;;
24137;SDS011;17947;50.672;6.076;2022-12-18T15:36:15;10.90;;;4.60;;
24137;SDS011;17947;50.672;6.076;2022-12-18T15:38:41;14.55;;;4.72;;
24137;SDS011;17947;50.672;6.076;2022-12-18T15:41:15;10.40;;;4.00;;
24137;SDS011;17947;50.672;6.076;2022-12-18T15:43:41;11.82;;;4.30;;
24137;SDS011;17947;50.672;6.076;2022-12-18T15:46:12;12.57;;;4.55;;
24137;SDS011;17947;50.672;6.076;2022-12-18T15:48:42;10.75;;;4.22;;
24137;SDS011;17947;50.672;6.076;2022-12-18T15:51:12;17.70;;;4.55;;
24137;SDS011;17947;50.672;6.076;2022-12-18T15:53:39;12.48;;;4.20;;
24137;SDS011;17947;50.672;6.076;2022-12-18T15:56:08;11.35;;;5.25;;
24137;SDS011;17947;50.672;6.076;2022-12-18T15:58:54;12.18;;;4.68;;
24137;SDS011;17947;50.672;6.076;2022-12-18T16:01:21;16.08;;;4.65;;
24137;SDS011;17947;50.672;6.076;2022-12-18T16:03:48;11.38;;;4.97;;
24137;SDS011;17947;50.672;6.076;2022-12-18T16:06:14;11.73;;;4.07;;
24137;SDS011;17947;50.672;6.076;2022-12-18T16:08:40;8.32;;;4.15;;
24137;SDS011;17947;50.672;6.076;2022-12-18T16:11:08;13.00;;;4.05;;
24137;SDS011;17947;50.672;6.076;2022-12-18T16:13:35;9.57;;;3.63;;
24137;SDS011;17947;50.672;6.076;2022-12-18T16:16:01;13.48;;;4.25;;
24137;SDS011;17947;50.672;6.076;2022-12-18T16:18:27;5.43;;;3.20;;
24137;SDS011;17947;50.672;6.076;2022-12-18T16:20:53;6.38;;;3.53;;
24137;SDS011;17947;50.672;6.076;2022-12-18T16:23:19;6.40;;;3.20;;
24137;SDS011;17947;50.672;6.076;2022-12-18T16:25:45;7.32;;;3.63;;
24137;SDS011;17947;50.672;6.076;2022-12-18T16:28:12;6.88;;;3.70;;
24137;SDS011;17947;50.672;6.076;2022-12-18T16:30:38;6.47;;;3.38;;
24137;SDS011;17947;50.672;6.076;2022-12-18T16:33:05;8.07;;;3.20;;
24137;SDS011;17947;50.672;6.076;2022-12-18T16:35:31;6.57;;;3.08;;
24137;SDS011;17947;50.672;6.076;2022-12-18T16:37:57;6.28;;;3.50;;
24137;SDS011;17947;50.672;6.076;2022-12-18T16:40:23;6.65;;;3.15;;
24137;SDS011;17947;50.672;6.076;2022-12-18T16:42:49;5.35;;;3.03;;
24137;SDS011;17947;50.672;6.076;2022-12-18T16:45:16;8.57;;;3.38;;
24137;SDS011;17947;50.672;6.076;2022-12-18T16:47:42;6.53;;;3.10;;
24137;SDS011;17947;50.672;6.076;2022-12-18T16:50:09;4.70;;;3.08;;
24137;SDS011;17947;50.672;6.076;2022-12-18T16:52:35;5.80;;;3.30;;
24137;SDS011;17947;50.672;6.076;2022-12-18T16:55:01;4.38;;;2.70;;
24137;SDS011;17947;50.672;6.076;2022-12-18T16:57:27;5.75;;;2.78;;
24137;SDS011;17947;50.672;6.076;2022-12-18T16:59:53;4.10;;;2.80;;
24137;SDS011;17947;50.672;6.076;2022-12-18T17:02:23;4.97;;;2.78;;
24137;SDS011;17947;50.672;6.076;2022-12-18T17:04:52;5.95;;;3.10;;
24137;SDS011;17947;50.672;6.076;2022-12-18T17:07:19;5.50;;;3.10;;
24137;SDS011;17947;50.672;6.076;2022-12-18T17:09:45;8.07;;;3.47;;